Terminal Aerodrome Forecast
Issued by NWS

Home | Current Version | Previous Version | Text Only | Print | Product List | Glossary On
Versions: 1 2 3 4 5 6 7 8 9 10 11 12 13 14 15 16 17 18 19 20 21 22 23 24 25 26 27 28 29 30 31 32 33 34 35 36 37 38 39 40 41 42 43 44 45 46 47 48 49 50
000
FTUS43 KMKX 312006 AAA
TAFUES
TAF AMD
KUES 312006Z 3120/0118 21005KT P6SM SCT028
     FM312100 20007KT P6SM SCT025
     FM010100 17003KT P6SM SCT250
     FM010800 VRB03KT 3SM BR SCT250
     FM011000 VRB03KT 2SM BR SCT250
      TEMPO 0110/0112 3/4SM BR
     FM011300 20007KT 5SM BR SCT250
     FM011500 21007KT P6SM FEW130=

USA.gov is the U.S. government's official web portal to all federal, state and local government web resources and services.